sensor_id;sensor_type;location;lat;lon;timestamp;pressure;altitude;pressure_sealevel;temperature;humidity
57668;BME280;43499;52.366;12.912;2022-11-06T00:00:27;101563.84;;;5.39;100.00
57668;BME280;43499;52.366;12.912;2022-11-06T00:01:32;101555.34;;;5.33;100.00
57668;BME280;43499;52.366;12.912;2022-11-06T00:02:34;101562.41;;;5.34;100.00
57668;BME280;43499;52.366;12.912;2022-11-06T00:03:43;101565.34;;;5.37;100.00
57668;BME280;43499;52.366;12.912;2022-11-06T00:04:48;101560.56;;;5.33;100.00
57668;BME280;43499;52.366;12.912;2022-11-06T00:05:52;101555.34;;;5.33;100.00
57668;BME280;43499;52.366;12.912;2022-11-06T00:07:14;101558.16;;;5.27;100.00
57668;BME280;43499;52.366;12.912;2022-11-06T00:08:28;101558.50;;;5.30;100.00
57668;BME280;43499;52.366;12.912;2022-11-06T00:09:30;101552.53;;;5.31;100.00
57668;BME280;43499;52.366;12.912;2022-11-06T00:10:31;101557.38;;;5.35;100.00
57668;BME280;43499;52.366;12.912;2022-11-06T00:11:32;101560.19;;;5.30;100.00
57668;BME280;43499;52.366;12.912;2022-11-06T00:12:43;101563.72;;;5.30;100.00
57668;BME280;43499;52.366;12.912;2022-11-06T00:13:44;101549.25;;;5.25;100.00
57668;BME280;43499;52.366;12.912;2022-11-06T00:14:52;101556.13;;;5.24;100.00
57668;BME280;43499;52.366;12.912;2022-11-06T00:15:53;101550.91;;;5.24;100.00
57668;BME280;43499;52.366;12.912;2022-11-06T00:16:54;101551.84;;;5.25;100.00
57668;BME280;43499;52.366;12.912;2022-11-06T00:17:55;101538.81;;;5.25;100.00
57668;BME280;43499;52.366;12.912;2022-11-06T00:18:59;101537.31;;;5.27;100.00
57668;BME280;43499;52.366;12.912;2022-11-06T00:20:06;101531.91;;;5.25;100.00
57668;BME280;43499;52.366;12.912;2022-11-06T00:21:43;101544.72;;;5.31;100.00
57668;BME280;43499;52.366;12.912;2022-11-06T00:22:58;101536.91;;;5.31;100.00
57668;BME280;43499;52.366;12.912;2022-11-06T00:24:02;101528.56;;;5.27;100.00
57668;BME280;43499;52.366;12.912;2022-11-06T00:25:19;101534.34;;;5.24;100.00
57668;BME280;43499;52.366;12.912;2022-11-06T00:26:32;101541.03;;;5.29;100.00
57668;BME280;43499;52.366;12.912;2022-11-06T00:27:41;101546.94;;;5.35;100.00
57668;BME280;43499;52.366;12.912;2022-11-06T00:28:49;101540.47;;;5.24;100.00
57668;BME280;43499;52.366;12.912;2022-11-06T00:29:51;101544.56;;;5.30;100.00
57668;BME280;43499;52.366;12.912;2022-11-06T00:31:00;101541.78;;;5.28;100.00
57668;BME280;43499;52.366;12.912;2022-11-06T00:32:03;101540.84;;;5.28;100.00
57668;BME280;43499;52.366;12.912;2022-11-06T00:33:07;101549.78;;;5.30;100.00
57668;BME280;43499;52.366;12.912;2022-11-06T00:34:14;101548.50;;;5.26;100.00
57668;BME280;43499;52.366;12.912;2022-11-06T00:35:15;101546.25;;;5.29;100.00
57668;BME280;43499;52.366;12.912;2022-11-06T00:36:43;101540.31;;;5.23;100.00
57668;BME280;43499;52.366;12.912;2022-11-06T00:37:57;101538.81;;;5.25;100.00
57668;BME280;43499;52.366;12.912;2022-11-06T00:39:09;101534.00;;;5.21;100.00
57668;BME280;43499;52.366;12.912;2022-11-06T00:40:16;101544.94;;;5.25;100.00
57668;BME280;43499;52.366;12.912;2022-11-06T00:41:17;101535.47;;;5.26;100.00
57668;BME280;43499;52.366;12.912;2022-11-06T00:42:21;101545.47;;;5.30;100.00
57668;BME280;43499;52.366;12.912;2022-11-06T00:43:24;101546.81;;;5.27;100.00
57668;BME280;43499;52.366;12.912;2022-11-06T00:44:28;101543.28;;;5.26;100.00
57668;BME280;43499;52.366;12.912;2022-11-06T00:45:40;101550.13;;;5.33;100.00
57668;BME280;43499;52.366;12.912;2022-11-06T00:46:46;101545.31;;;5.29;100.00
57668;BME280;43499;52.366;12.912;2022-11-06T00:48:05;101540.25;;;5.30;100.00
57668;BME280;43499;52.366;12.912;2022-11-06T00:49:27;101543.59;;;5.36;100.00
57668;BME280;43499;52.366;12.912;2022-11-06T00:50:28;101552.09;;;5.43;100.00
57668;BME280;43499;52.366;12.912;2022-11-06T00:51:39;101549.50;;;5.43;100.00
57668;BME280;43499;52.366;12.912;2022-11-06T00:52:40;101548.41;;;5.40;100.00
57668;BME280;43499;52.366;12.912;2022-11-06T00:53:47;101547.25;;;5.46;100.00
57668;BME280;43499;52.366;12.912;2022-11-06T00:54:56;101552.97;;;5.50;100.00
57668;BME280;43499;52.366;12.912;2022-11-06T00:56:19;101541.88;;;5.44;100.00
57668;BME280;43499;52.366;12.912;2022-11-06T00:57:20;101549.25;;;5.48;100.00
57668;BME280;43499;52.366;12.912;2022-11-06T00:58:21;101549.47;;;5.50;100.00
57668;BME280;43499;52.366;12.912;2022-11-06T00:59:22;101546.66;;;5.48;100.00
57668;BME280;43499;52.366;12.912;2022-11-06T01:00:23;101548.19;;;5.46;100.00
57668;BME280;43499;52.366;12.912;2022-11-06T01:01:27;101553.41;;;5.46;100.00
57668;BME280;43499;52.366;12.912;2022-11-06T01:02:28;101550.22;;;5.41;100.00
57668;BME280;43499;52.366;12.912;2022-11-06T01:03:36;101545.81;;;5.40;100.00
57668;BME280;43499;52.366;12.912;2022-11-06T01:04:38;101546.13;;;5.44;100.00
57668;BME280;43499;52.366;12.912;2022-11-06T01:05:39;101555.13;;;5.38;100.00
57668;BME280;43499;52.366;12.912;2022-11-06T01:06:43;101553.44;;;5.39;100.00
57668;BME280;43499;52.366;12.912;2022-11-06T01:07:45;101546.19;;;5.36;100.00
57668;BME280;43499;52.366;12.912;2022-11-06T01:08:47;101552.50;;;5.38;100.00
57668;BME280;43499;52.366;12.912;2022-11-06T01:09:48;101536.56;;;5.28;100.00
57668;BME280;43499;52.366;12.912;2022-11-06T01:10:49;101543.44;;;5.28;100.00
57668;BME280;43499;52.366;12.912;2022-11-06T01:11:54;101539.34;;;5.30;100.00
57668;BME280;43499;52.366;12.912;2022-11-06T01:12:55;101536.97;;;5.24;100.00
57668;BME280;43499;52.366;12.912;2022-11-06T01:13:58;101543.66;;;5.29;100.00
57668;BME280;43499;52.366;12.912;2022-11-06T01:14:59;101538.06;;;5.26;100.00
57668;BME280;43499;52.366;12.912;2022-11-06T01:16:01;101534.50;;;5.25;100.00
57668;BME280;43499;52.366;12.912;2022-11-06T01:17:04;101537.34;;;5.20;100.00
57668;BME280;43499;52.366;12.912;2022-11-06T01:18:05;101537.19;;;5.18;100.00
57668;BME280;43499;52.366;12.912;2022-11-06T01:19:06;101536.06;;;5.16;100.00
57668;BME280;43499;52.366;12.912;2022-11-06T01:20:07;101539.63;;;5.17;100.00
57668;BME280;43499;52.366;12.912;2022-11-06T01:21:13;101529.88;;;5.23;100.00
57668;BME280;43499;52.366;12.912;2022-11-06T01:22:14;101531.97;;;5.18;100.00
57668;BME280;43499;52.366;12.912;2022-11-06T01:23:15;101530.16;;;5.10;100.00
57668;BME280;43499;52.366;12.912;2022-11-06T01:24:19;101532.75;;;5.10;100.00
57668;BME280;43499;52.366;12.912;2022-11-06T01:25:20;101533.09;;;5.13;100.00
57668;BME280;43499;52.366;12.912;2022-11-06T01:26:25;101531.25;;;5.12;100.00
57668;BME280;43499;52.366;12.912;2022-11-06T01:27:28;101530.50;;;5.13;100.00
57668;BME280;43499;52.366;12.912;2022-11-06T01:28:30;101524.53;;;5.14;100.00
57668;BME280;43499;52.366;12.912;2022-11-06T01:29:31;101525.84;;;5.10;100.00
57668;BME280;43499;52.366;12.912;2022-11-06T01:30:36;101518.03;;;5.10;100.00
57668;BME280;43499;52.366;12.912;2022-11-06T01:31:38;101519.53;;;5.08;100.00
57668;BME280;43499;52.366;12.912;2022-11-06T01:32:39;101512.31;;;5.06;100.00
57668;BME280;43499;52.366;12.912;2022-11-06T01:33:40;101515.28;;;5.09;100.00
57668;BME280;43499;52.366;12.912;2022-11-06T01:34:41;101505.59;;;5.08;100.00
57668;BME280;43499;52.366;12.912;2022-11-06T01:35:47;101511.50;;;5.14;100.00
57668;BME280;43499;52.366;12.912;2022-11-06T01:36:48;101509.84;;;5.15;100.00
57668;BME280;43499;52.366;12.912;2022-11-06T01:37:49;101500.38;;;5.08;100.00
57668;BME280;43499;52.366;12.912;2022-11-06T01:38:51;101505.38;;;5.14;100.00
57668;BME280;43499;52.366;12.912;2022-11-06T01:39:53;101504.25;;;5.12;100.00
57668;BME280;43499;52.366;12.912;2022-11-06T01:40:54;101508.88;;;5.14;100.00
57668;BME280;43499;52.366;12.912;2022-11-06T01:42:10;101499.09;;;5.04;100.00
57668;BME280;43499;52.366;12.912;2022-11-06T01:43:17;101503.00;;;5.08;100.00
57668;BME280;43499;52.366;12.912;2022-11-06T01:45:43;101501.50;;;5.03;100.00
57668;BME280;43499;52.366;12.912;2022-11-06T01:46:44;101509.00;;;5.00;100.00
57668;BME280;43499;52.366;12.912;2022-11-06T01:47:48;101498.97;;;4.96;100.00
57668;BME280;43499;52.366;12.912;2022-11-06T01:48:54;101503.38;;;5.04;100.00
57668;BME280;43499;52.366;12.912;2022-11-06T01:50:05;101500.63;;;4.95;100.00
57668;BME280;43499;52.366;12.912;2022-11-06T01:51:07;101506.63;;;4.94;100.00
57668;BME280;43499;52.366;12.912;2022-11-06T01:52:10;101498.06;;;4.88;100.00
57668;BME280;43499;52.366;12.912;2022-11-06T01:53:21;101495.47;;;4.88;100.00
57668;BME280;43499;52.366;12.912;2022-11-06T01:54:29;101502.53;;;4.89;100.00
57668;BME280;43499;52.366;12.912;2022-11-06T01:55:48;101493.03;;;4.89;100.00
57668;BME280;43499;52.366;12.912;2022-11-06T01:56:56;101503.78;;;5.00;100.00
57668;BME280;43499;52.366;12.912;2022-11-06T01:58:04;101508.06;;;4.99;100.00
57668;BME280;43499;52.366;12.912;2022-11-06T01:59:24;101496.00;;;4.92;100.00
57668;BME280;43499;52.366;12.912;2022-11-06T02:00:41;101496.56;;;4.90;100.00
57668;BME280;43499;52.366;12.912;2022-11-06T02:01:51;101490.63;;;4.84;100.00
57668;BME280;43499;52.366;12.912;2022-11-06T02:02:52;101490.31;;;4.81;100.00
57668;BME280;43499;52.366;12.912;2022-11-06T02:03:58;101495.09;;;4.85;100.00
57668;BME280;43499;52.366;12.912;2022-11-06T02:05:02;101499.78;;;4.80;100.00
57668;BME280;43499;52.366;12.912;2022-11-06T02:06:03;101498.66;;;4.85;100.00
57668;BME280;43499;52.366;12.912;2022-11-06T02:07:07;101501.63;;;4.81;100.00
57668;BME280;43499;52.366;12.912;2022-11-06T02:08:12;101496.63;;;4.83;100.00
57668;BME280;43499;52.366;12.912;2022-11-06T02:09:18;101500.88;;;4.82;100.00
57668;BME280;43499;52.366;12.912;2022-11-06T02:10:28;101494.63;;;4.73;100.00
57668;BME280;43499;52.366;12.912;2022-11-06T02:11:29;101494.25;;;4.70;100.00
57668;BME280;43499;52.366;12.912;2022-11-06T02:12:38;101495.16;;;4.77;100.00
57668;BME280;43499;52.366;12.912;2022-11-06T02:13:52;101496.06;;;4.78;100.00
57668;BME280;43499;52.366;12.912;2022-11-06T02:16:38;101493.81;;;4.81;100.00
57668;BME280;43499;52.366;12.912;2022-11-06T02:18:11;101495.09;;;4.85;100.00
57668;BME280;43499;52.366;12.912;2022-11-06T02:19:32;101493.44;;;4.85;100.00
57668;BME280;43499;52.366;12.912;2022-11-06T02:22:59;101487.34;;;4.77;100.00
57668;BME280;43499;52.366;12.912;2022-11-06T02:25:35;101489.19;;;4.78;100.00
57668;BME280;43499;52.366;12.912;2022-11-06T02:28:14;101497.22;;;4.73;100.00
57668;BME280;43499;52.366;12.912;2022-11-06T02:29:29;101486.63;;;4.71;100.00
57668;BME280;43499;52.366;12.912;2022-11-06T02:30:35;101487.59;;;4.65;100.00
57668;BME280;43499;52.366;12.912;2022-11-06T02:31:41;101495.56;;;4.66;100.00
57668;BME280;43499;52.366;12.912;2022-11-06T02:32:56;101487.81;;;4.59;100.00
57668;BME280;43499;52.366;12.912;2022-11-06T02:34:09;101482.94;;;4.62;100.00
57668;BME280;43499;52.366;12.912;2022-11-06T02:35:31;101486.47;;;4.62;100.00
57668;BME280;43499;52.366;12.912;2022-11-06T02:36:41;101486.28;;;4.61;100.00
57668;BME280;43499;52.366;12.912;2022-11-06T02:37:45;101490.41;;;4.59;100.00
57668;BME280;43499;52.366;12.912;2022-11-06T02:38:50;101498.22;;;4.59;100.00
57668;BME280;43499;52.366;12.912;2022-11-06T02:39:56;101494.28;;;4.55;100.00
57668;BME280;43499;52.366;12.912;2022-11-06T02:41:06;101492.81;;;4.57;100.00
57668;BME280;43499;52.366;12.912;2022-11-06T02:42:19;101482.81;;;4.53;100.00
57668;BME280;43499;52.366;12.912;2022-11-06T02:43:43;101477.22;;;4.50;100.00
57668;BME280;43499;52.366;12.912;2022-11-06T02:44:53;101479.25;;;4.53;100.00
57668;BME280;43499;52.366;12.912;2022-11-06T02:46:17;101477.41;;;4.52;100.00
57668;BME280;43499;52.366;12.912;2022-11-06T02:47:20;101479.25;;;4.53;100.00
57668;BME280;43499;52.366;12.912;2022-11-06T02:48:29;101481.84;;;4.53;100.00
57668;BME280;43499;52.366;12.912;2022-11-06T02:49:39;101483.88;;;4.55;100.00
57668;BME280;43499;52.366;12.912;2022-11-06T02:50:47;101489.66;;;4.60;100.00
57668;BME280;43499;52.366;12.912;2022-11-06T02:51:57;101481.47;;;4.57;100.00
57668;BME280;43499;52.366;12.912;2022-11-06T02:53:03;101487.81;;;4.52;100.00
57668;BME280;43499;52.366;12.912;2022-11-06T02:54:07;101474.03;;;4.53;100.00
57668;BME280;43499;52.366;12.912;2022-11-06T02:55:14;101475.75;;;4.52;100.00
57668;BME280;43499;52.366;12.912;2022-11-06T02:56:21;101469.03;;;4.54;100.00
57668;BME280;43499;52.366;12.912;2022-11-06T02:57:25;101473.88;;;4.51;100.00
57668;BME280;43499;52.366;12.912;2022-11-06T02:58:34;101480.41;;;4.47;100.00
57668;BME280;43499;52.366;12.912;2022-11-06T03:00:03;101476.88;;;4.47;100.00
57668;BME280;43499;52.366;12.912;2022-11-06T03:01:23;101473.72;;;4.42;100.00
57668;BME280;43499;52.366;12.912;2022-11-06T03:02:37;101479.88;;;4.43;100.00
57668;BME280;43499;52.366;12.912;2022-11-06T03:03:45;101473.19;;;4.38;100.00
57668;BME280;43499;52.366;12.912;2022-11-06T03:06:13;101477.66;;;4.39;100.00
57668;BME280;43499;52.366;12.912;2022-11-06T03:07:27;101481.72;;;4.37;100.00
57668;BME280;43499;52.366;12.912;2022-11-06T03:08:50;101477.84;;;4.33;100.00
57668;BME280;43499;52.366;12.912;2022-11-06T03:09:54;101483.22;;;4.35;100.00
57668;BME280;43499;52.366;12.912;2022-11-06T03:11:16;101474.13;;;4.31;100.00
57668;BME280;43499;52.366;12.912;2022-11-06T03:12:56;101461.16;;;4.24;100.00
57668;BME280;43499;52.366;12.912;2022-11-06T03:15:31;101470.03;;;4.26;100.00
57668;BME280;43499;52.366;12.912;2022-11-06T03:17:16;101472.09;;;4.28;100.00
57668;BME280;43499;52.366;12.912;2022-11-06T03:19:04;101461.53;;;4.20;100.00
57668;BME280;43499;52.366;12.912;2022-11-06T03:20:44;101453.56;;;4.18;100.00
57668;BME280;43499;52.366;12.912;2022-11-06T03:22:11;101471.03;;;4.19;100.00
57668;BME280;43499;52.366;12.912;2022-11-06T03:23:19;101456.53;;;4.14;100.00
57668;BME280;43499;52.366;12.912;2022-11-06T03:24:45;101453.75;;;4.12;100.00
57668;BME280;43499;52.366;12.912;2022-11-06T03:26:17;101452.06;;;4.13;100.00
57668;BME280;43499;52.366;12.912;2022-11-06T03:27:56;101453.72;;;4.20;100.00
57668;BME280;43499;52.366;12.912;2022-11-06T03:29:30;101460.41;;;4.17;100.00
57668;BME280;43499;52.366;12.912;2022-11-06T03:30:53;101450.22;;;4.19;100.00
57668;BME280;43499;52.366;12.912;2022-11-06T03:32:27;101461.16;;;4.16;100.00
57668;BME280;43499;52.366;12.912;2022-11-06T03:33:57;101462.09;;;4.17;100.00
57668;BME280;43499;52.366;12.912;2022-11-06T03:35:20;101459.88;;;4.13;100.00
57668;BME280;43499;52.366;12.912;2022-11-06T03:36:30;101456.16;;;4.11;100.00
57668;BME280;43499;52.366;12.912;2022-11-06T03:37:46;101449.47;;;4.13;100.00
57668;BME280;43499;52.366;12.912;2022-11-06T03:39:05;101453.38;;;4.09;100.00
57668;BME280;43499;52.366;12.912;2022-11-06T03:40:12;101464.34;;;4.14;100.00
57668;BME280;43499;52.366;12.912;2022-11-06T03:42:59;101468.41;;;4.12;100.00
57668;BME280;43499;52.366;12.912;2022-11-06T03:44:37;101456.00;;;4.09;100.00
57668;BME280;43499;52.366;12.912;2022-11-06T03:45:48;101454.69;;;4.06;100.00
57668;BME280;43499;52.366;12.912;2022-11-06T03:47:08;101470.13;;;4.11;100.00
57668;BME280;43499;52.366;12.912;2022-11-06T03:50:15;101483.13;;;4.04;100.00
57668;BME280;43499;52.366;12.912;2022-11-06T03:51:18;101470.84;;;4.03;100.00
57668;BME280;43499;52.366;12.912;2022-11-06T03:52:56;101467.50;;;4.04;100.00
57668;BME280;43499;52.366;12.912;2022-11-06T03:54:21;101469.75;;;4.01;100.00
57668;BME280;43499;52.366;12.912;2022-11-06T03:55:50;101473.13;;;4.00;100.00
57668;BME280;43499;52.366;12.912;2022-11-06T03:57:08;101465.09;;;3.98;100.00
57668;BME280;43499;52.366;12.912;2022-11-06T03:58:19;101459.53;;;4.03;100.00
57668;BME280;43499;52.366;12.912;2022-11-06T03:59:27;101466.59;;;4.04;100.00
57668;BME280;43499;52.366;12.912;2022-11-06T04:00:41;101462.72;;;4.00;100.00
57668;BME280;43499;52.366;12.912;2022-11-06T04:01:57;101459.00;;;3.98;100.00
57668;BME280;43499;52.366;12.912;2022-11-06T04:03:58;101447.28;;;3.94;100.00
57668;BME280;43499;52.366;12.912;2022-11-06T04:05:09;101463.06;;;3.96;100.00
57668;BME280;43499;52.366;12.912;2022-11-06T04:06:17;101446.00;;;3.91;100.00
57668;BME280;43499;52.366;12.912;2022-11-06T04:07:32;101455.44;;;3.97;100.00
57668;BME280;43499;52.366;12.912;2022-11-06T04:08:37;101464.19;;;3.98;100.00
57668;BME280;43499;52.366;12.912;2022-11-06T04:10:07;101459.00;;;3.98;100.00
57668;BME280;43499;52.366;12.912;2022-11-06T04:11:35;101458.41;;;4.00;100.00
57668;BME280;43499;52.366;12.912;2022-11-06T04:13:01;101451.00;;;3.96;100.00
57668;BME280;43499;52.366;12.912;2022-11-06T04:14:30;101447.63;;;3.97;100.00
57668;BME280;43499;52.366;12.912;2022-11-06T04:15:41;101464.94;;;3.97;100.00
57668;BME280;43499;52.366;12.912;2022-11-06T04:17:10;101454.91;;;3.93;100.00
57668;BME280;43499;52.366;12.912;2022-11-06T04:18:20;101446.00;;;3.91;100.00
57668;BME280;43499;52.366;12.912;2022-11-06T04:19:32;101442.63;;;3.92;100.00
57668;BME280;43499;52.366;12.912;2022-11-06T04:20:54;101460.44;;;4.03;100.00
57668;BME280;43499;52.366;12.912;2022-11-06T04:22:41;101446.69;;;4.04;100.00
57668;BME280;43499;52.366;12.912;2022-11-06T04:24:05;101437.22;;;3.97;100.00
57668;BME280;43499;52.366;12.912;2022-11-06T04:27:47;101438.34;;;3.99;100.00
57668;BME280;43499;52.366;12.912;2022-11-06T04:29:54;101445.03;;;4.05;100.00
57668;BME280;43499;52.366;12.912;2022-11-06T04:32:16;101445.41;;;4.00;100.00
57668;BME280;43499;52.366;12.912;2022-11-06T04:37:11;101430.75;;;3.94;100.00
57668;BME280;43499;52.366;12.912;2022-11-06T04:38:50;101431.50;;;3.93;100.00
57668;BME280;43499;52.366;12.912;2022-11-06T04:40:24;101439.50;;;3.94;100.00
57668;BME280;43499;52.366;12.912;2022-11-06T04:42:04;101431.50;;;3.93;100.00
57668;BME280;43499;52.366;12.912;2022-11-06T04:45:28;101437.63;;;3.93;100.00
57668;BME280;43499;52.366;12.912;2022-11-06T04:47:03;101446.34;;;3.94;100.00
57668;BME280;43499;52.366;12.912;2022-11-06T04:48:11;101430.97;;;3.81;100.00
57668;BME280;43499;52.366;12.912;2022-11-06T04:49:23;101435.97;;;3.86;100.00
57668;BME280;43499;52.366;12.912;2022-11-06T04:50:31;101435.03;;;3.86;100.00
57668;BME280;43499;52.366;12.912;2022-11-06T04:51:48;101433.94;;;3.84;100.00
57668;BME280;43499;52.366;12.912;2022-11-06T04:53:03;101425.94;;;3.82;100.00
57668;BME280;43499;52.366;12.912;2022-11-06T04:54:35;101425.19;;;3.83;100.00
57668;BME280;43499;52.366;12.912;2022-11-06T04:55:53;101425.59;;;3.79;100.00
57668;BME280;43499;52.366;12.912;2022-11-06T04:57:22;101434.69;;;3.83;100.00
57668;BME280;43499;52.366;12.912;2022-11-06T04:58:26;101420.94;;;3.77;100.00
57668;BME280;43499;52.366;12.912;2022-11-06T04:59:29;101438.59;;;3.79;100.00
57668;BME280;43499;52.366;12.912;2022-11-06T05:00:38;101425.41;;;3.70;100.00
57668;BME280;43499;52.366;12.912;2022-11-06T05:01:49;101435.25;;;3.73;100.00
57668;BME280;43499;52.366;12.912;2022-11-06T05:03:07;101436.94;;;3.73;100.00
57668;BME280;43499;52.366;12.912;2022-11-06T05:04:39;101430.06;;;3.66;100.00
57668;BME280;43499;52.366;12.912;2022-11-06T05:05:50;101424.88;;;3.66;100.00
57668;BME280;43499;52.366;12.912;2022-11-06T05:06:59;101424.47;;;3.70;100.00
57668;BME280;43499;52.366;12.912;2022-11-06T05:08:12;101417.81;;;3.65;100.00
57668;BME280;43499;52.366;12.912;2022-11-06T05:09:18;101421.72;;;3.61;100.00
57668;BME280;43499;52.366;12.912;2022-11-06T05:10:25;101412.25;;;3.62;100.00
57668;BME280;43499;52.366;12.912;2022-11-06T05:11:27;101411.13;;;3.60;100.00
57668;BME280;43499;52.366;12.912;2022-11-06T05:12:37;101410.22;;;3.59;100.00
57668;BME280;43499;52.366;12.912;2022-11-06T05:13:49;101412.78;;;3.52;100.00
57668;BME280;43499;52.366;12.912;2022-11-06T05:14:59;101413.53;;;3.51;100.00
57668;BME280;43499;52.366;12.912;2022-11-06T05:16:14;101414.47;;;3.51;100.00
57668;BME280;43499;52.366;12.912;2022-11-06T05:17:15;101421.72;;;3.54;100.00
57668;BME280;43499;52.366;12.912;2022-11-06T05:18:29;101425.78;;;3.52;100.00
57668;BME280;43499;52.366;12.912;2022-11-06T05:19:45;101423.94;;;3.58;100.00
57668;BME280;43499;52.366;12.912;2022-11-06T05:20:52;101411.72;;;3.50;100.00
57668;BME280;43499;52.366;12.912;2022-11-06T05:22:17;101421.34;;;3.58;100.00
57668;BME280;43499;52.366;12.912;2022-11-06T05:23:36;101418.56;;;3.49;100.00
57668;BME280;43499;52.366;12.912;2022-11-06T05:24:43;101423.56;;;3.55;100.00
57668;BME280;43499;52.366;12.912;2022-11-06T05:25:54;101422.66;;;3.54;100.00
57668;BME280;43499;52.366;12.912;2022-11-06T05:27:03;101430.06;;;3.59;100.00
57668;BME280;43499;52.366;12.912;2022-11-06T05:28:13;101427.09;;;3.63;100.00
57668;BME280;43499;52.366;12.912;2022-11-06T05:29:17;101421.19;;;3.57;100.00
57668;BME280;43499;52.366;12.912;2022-11-06T05:30:35;101418.72;;;3.51;100.00
57668;BME280;43499;52.366;12.912;2022-11-06T05:31:47;101418.94;;;3.52;100.00
57668;BME280;43499;52.366;12.912;2022-11-06T05:33:09;101423.00;;;3.58;100.00
57668;BME280;43499;52.366;12.912;2022-11-06T05:34:14;101420.06;;;3.54;100.00
57668;BME280;43499;52.366;12.912;2022-11-06T05:36:55;101431.56;;;3.57;100.00
57668;BME280;43499;52.366;12.912;2022-11-06T05:38:19;101424.13;;;3.60;100.00
57668;BME280;43499;52.366;12.912;2022-11-06T05:39:34;101424.69;;;3.57;100.00
57668;BME280;43499;52.366;12.912;2022-11-06T05:40:41;101428.19;;;3.58;100.00
57668;BME280;43499;52.366;12.912;2022-11-06T05:41:55;101423.00;;;3.58;100.00
57668;BME280;43499;52.366;12.912;2022-11-06T05:43:01;101420.59;;;3.59;100.00
57668;BME280;43499;52.366;12.912;2022-11-06T05:44:08;101408.53;;;3.52;100.00
57668;BME280;43499;52.366;12.912;2022-11-06T05:45:14;101404.09;;;3.51;100.00
57668;BME280;43499;52.366;12.912;2022-11-06T05:46:34;101409.13;;;3.50;100.00
57668;BME280;43499;52.366;12.912;2022-11-06T05:47:47;101417.25;;;3.53;100.00
57668;BME280;43499;52.366;12.912;2022-11-06T05:48:58;101415.41;;;3.52;100.00
57668;BME280;43499;52.366;12.912;2022-11-06T05:50:11;101423.78;;;3.57;100.00
57668;BME280;43499;52.366;12.912;2022-11-06T05:51:20;101410.41;;;3.53;100.00
57668;BME280;43499;52.366;12.912;2022-11-06T05:52:29;101428.78;;;3.62;100.00
57668;BME280;43499;52.366;12.912;2022-11-06T05:53:33;101405.00;;;3.59;100.00
57668;BME280;43499;52.366;12.912;2022-11-06T05:54:36;101412.97;;;3.61;100.00
57668;BME280;43499;52.366;12.912;2022-11-06T05:55:38;101412.41;;;3.63;100.00
57668;BME280;43499;52.366;12.912;2022-11-06T05:56:47;101410.19;;;3.66;100.00
57668;BME280;43499;52.366;12.912;2022-11-06T05:58:01;101421.88;;;3.70;100.00
57668;BME280;43499;52.366;12.912;2022-11-06T05:59:28;101413.91;;;3.68;100.00
57668;BME280;43499;52.366;12.912;2022-11-06T06:00:40;101415.38;;;3.66;100.00
57668;BME280;43499;52.366;12.912;2022-11-06T06:01:50;101406.50;;;3.57;100.00
57668;BME280;43499;52.366;12.912;2022-11-06T06:02:51;101413.53;;;3.65;100.00
57668;BME280;43499;52.366;12.912;2022-11-06T06:04:12;101407.78;;;3.68;100.00
57668;BME280;43499;52.366;12.912;2022-11-06T06:05:21;101403.69;;;3.63;100.00
57668;BME280;43499;52.366;12.912;2022-11-06T06:06:41;101405.19;;;3.68;100.00
57668;BME280;43499;52.366;12.912;2022-11-06T06:08:00;101417.78;;;3.72;100.00
57668;BME280;43499;52.366;12.912;2022-11-06T06:09:10;101408.53;;;3.67;100.00
57668;BME280;43499;52.366;12.912;2022-11-06T06:10:13;101414.66;;;3.67;100.00
57668;BME280;43499;52.366;12.912;2022-11-06T06:11:14;101411.13;;;3.67;100.00
57668;BME280;43499;52.366;12.912;2022-11-06T06:12:27;101416.88;;;3.72;100.00
57668;BME280;43499;52.366;12.912;2022-11-06T06:13:36;101428.03;;;3.70;100.00
57668;BME280;43499;52.366;12.912;2022-11-06T06:14:37;101420.97;;;3.69;100.00
57668;BME280;43499;52.366;12.912;2022-11-06T06:15:44;101410.38;;;3.61;100.00
57668;BME280;43499;52.366;12.912;2022-11-06T06:17:09;101422.44;;;3.67;100.00
57668;BME280;43499;52.366;12.912;2022-11-06T06:18:13;101421.69;;;3.68;100.00
57668;BME280;43499;52.366;12.912;2022-11-06T06:19:24;101429.31;;;3.74;100.00
57668;BME280;43499;52.366;12.912;2022-11-06T06:20:30;101413.34;;;3.71;100.00
57668;BME280;43499;52.366;12.912;2022-11-06T06:21:39;101419.84;;;3.67;100.00
57668;BME280;43499;52.366;12.912;2022-11-06T06:22:51;101416.13;;;3.73;100.00
57668;BME280;43499;52.366;12.912;2022-11-06T06:24:01;101434.88;;;3.77;100.00
57668;BME280;43499;52.366;12.912;2022-11-06T06:25:33;101434.69;;;3.76;100.00
57668;BME280;43499;52.366;12.912;2022-11-06T06:26:35;101418.16;;;3.75;100.00
57668;BME280;43499;52.366;12.912;2022-11-06T06:27:36;101416.69;;;3.77;100.00
57668;BME280;43499;52.366;12.912;2022-11-06T06:28:37;101417.97;;;3.81;100.00
57668;BME280;43499;52.366;12.912;2022-11-06T06:29:50;101427.78;;;3.83;100.00
57668;BME280;43499;52.366;12.912;2022-11-06T06:31:14;101422.03;;;3.86;100.00
57668;BME280;43499;52.366;12.912;2022-11-06T06:32:28;101422.59;;;3.91;100.00
57668;BME280;43499;52.366;12.912;2022-11-06T06:33:43;101417.78;;;3.86;100.00
57668;BME280;43499;52.366;12.912;2022-11-06T06:34:50;101430.19;;;3.96;100.00
57668;BME280;43499;52.366;12.912;2022-11-06T06:35:57;101434.47;;;3.96;100.00